sensor_id;sensor_type;location;lat;lon;timestamp;temperature;humidity
62809;DHT22;48848;39.002;-94.584;2023-03-15T00:00:23;22.70;34.90
62809;DHT22;48848;39.002;-94.584;2023-03-15T00:02:49;23.60;33.60
62809;DHT22;48848;39.002;-94.584;2023-03-15T00:05:15;24.20;32.10
62809;DHT22;48848;39.002;-94.584;2023-03-15T00:07:41;23.30;32.70
62809;DHT22;48848;39.002;-94.584;2023-03-15T00:10:07;22.70;33.70
62809;DHT22;48848;39.002;-94.584;2023-03-15T00:12:33;22.40;34.70
62809;DHT22;48848;39.002;-94.584;2023-03-15T00:14:59;22.00;35.40
62809;DHT22;48848;39.002;-94.584;2023-03-15T00:17:24;21.80;35.80
62809;DHT22;48848;39.002;-94.584;2023-03-15T00:19:50;21.60;35.80
62809;DHT22;48848;39.002;-94.584;2023-03-15T00:22:16;21.50;36.20
62809;DHT22;48848;39.002;-94.584;2023-03-15T00:24:42;21.40;36.50
62809;DHT22;48848;39.002;-94.584;2023-03-15T00:27:08;21.40;36.70
62809;DHT22;48848;39.002;-94.584;2023-03-15T00:29:34;21.40;37.00
62809;DHT22;48848;39.002;-94.584;2023-03-15T00:32:00;21.40;36.40
62809;DHT22;48848;39.002;-94.584;2023-03-15T00:34:25;21.30;36.30
62809;DHT22;48848;39.002;-94.584;2023-03-15T00:36:51;21.30;36.40
62809;DHT22;48848;39.002;-94.584;2023-03-15T00:39:20;21.30;36.30
62809;DHT22;48848;39.002;-94.584;2023-03-15T00:41:46;21.30;36.30
62809;DHT22;48848;39.002;-94.584;2023-03-15T00:44:12;21.30;36.80
62809;DHT22;48848;39.002;-94.584;2023-03-15T00:46:38;21.30;36.40
62809;DHT22;48848;39.002;-94.584;2023-03-15T00:49:04;21.40;36.30
62809;DHT22;48848;39.002;-94.584;2023-03-15T00:51:30;21.30;36.50
62809;DHT22;48848;39.002;-94.584;2023-03-15T00:53:56;21.30;36.60
62809;DHT22;48848;39.002;-94.584;2023-03-15T00:56:23;21.20;36.50
62809;DHT22;48848;39.002;-94.584;2023-03-15T00:58:49;21.30;34.50
62809;DHT22;48848;39.002;-94.584;2023-03-15T01:01:18;22.10;35.00
62809;DHT22;48848;39.002;-94.584;2023-03-15T01:03:44;22.60;34.10
62809;DHT22;48848;39.002;-94.584;2023-03-15T01:06:12;23.20;33.10
62809;DHT22;48848;39.002;-94.584;2023-03-15T01:08:38;23.30;32.40
62809;DHT22;48848;39.002;-94.584;2023-03-15T01:11:05;22.60;33.00
62809;DHT22;48848;39.002;-94.584;2023-03-15T01:13:31;22.20;33.60
62809;DHT22;48848;39.002;-94.584;2023-03-15T01:15:57;22.00;33.90
62809;DHT22;48848;39.002;-94.584;2023-03-15T01:18:23;22.00;34.20
62809;DHT22;48848;39.002;-94.584;2023-03-15T01:20:49;21.80;34.60
62809;DHT22;48848;39.002;-94.584;2023-03-15T01:23:15;21.80;35.00
62809;DHT22;48848;39.002;-94.584;2023-03-15T01:25:41;21.60;34.80
62809;DHT22;48848;39.002;-94.584;2023-03-15T01:28:07;21.50;35.00
62809;DHT22;48848;39.002;-94.584;2023-03-15T01:30:33;21.40;35.50
62809;DHT22;48848;39.002;-94.584;2023-03-15T01:32:59;21.40;35.50
62809;DHT22;48848;39.002;-94.584;2023-03-15T01:35:25;21.60;35.60
62809;DHT22;48848;39.002;-94.584;2023-03-15T01:37:51;21.50;35.00
62809;DHT22;48848;39.002;-94.584;2023-03-15T01:40:17;21.30;35.80
62809;DHT22;48848;39.002;-94.584;2023-03-15T01:42:53;21.70;34.70
62809;DHT22;48848;39.002;-94.584;2023-03-15T01:48:20;23.10;32.80
62809;DHT22;48848;39.002;-94.584;2023-03-15T01:50:47;23.40;32.30
62809;DHT22;48848;39.002;-94.584;2023-03-15T01:53:14;22.60;32.80
62809;DHT22;48848;39.002;-94.584;2023-03-15T01:55:40;22.10;33.30
62809;DHT22;48848;39.002;-94.584;2023-03-15T01:58:06;21.80;34.10
62809;DHT22;48848;39.002;-94.584;2023-03-15T02:00:33;21.70;34.90
62809;DHT22;48848;39.002;-94.584;2023-03-15T02:03:00;21.50;35.30
62809;DHT22;48848;39.002;-94.584;2023-03-15T02:05:33;21.50;35.60
62809;DHT22;48848;39.002;-94.584;2023-03-15T02:08:00;21.40;35.90
62809;DHT22;48848;39.002;-94.584;2023-03-15T02:10:30;21.30;35.60
62809;DHT22;48848;39.002;-94.584;2023-03-15T02:12:58;21.30;36.00
62809;DHT22;48848;39.002;-94.584;2023-03-15T02:15:24;21.30;36.00
62809;DHT22;48848;39.002;-94.584;2023-03-15T02:17:50;21.30;36.00
62809;DHT22;48848;39.002;-94.584;2023-03-15T02:23:02;21.20;36.20
62809;DHT22;48848;39.002;-94.584;2023-03-15T02:28:08;21.20;36.40
62809;DHT22;48848;39.002;-94.584;2023-03-15T02:30:35;21.70;34.80
62809;DHT22;48848;39.002;-94.584;2023-03-15T02:33:01;22.40;34.10
62809;DHT22;48848;39.002;-94.584;2023-03-15T02:35:30;23.00;33.10
62809;DHT22;48848;39.002;-94.584;2023-03-15T02:37:57;23.50;32.20
62809;DHT22;48848;39.002;-94.584;2023-03-15T02:40:24;23.00;31.90
62809;DHT22;48848;39.002;-94.584;2023-03-15T02:42:53;22.40;32.70
62809;DHT22;48848;39.002;-94.584;2023-03-15T02:45:20;22.10;33.80
62809;DHT22;48848;39.002;-94.584;2023-03-15T02:47:46;21.80;34.60
62809;DHT22;48848;39.002;-94.584;2023-03-15T02:50:13;21.80;37.00
62809;DHT22;48848;39.002;-94.584;2023-03-15T02:52:38;21.70;35.40
62809;DHT22;48848;39.002;-94.584;2023-03-15T02:55:05;21.50;36.00
62809;DHT22;48848;39.002;-94.584;2023-03-15T02:57:31;21.40;34.80
62809;DHT22;48848;39.002;-94.584;2023-03-15T02:59:56;21.20;35.60
62809;DHT22;48848;39.002;-94.584;2023-03-15T03:02:23;21.10;36.50
62809;DHT22;48848;39.002;-94.584;2023-03-15T03:04:49;21.00;36.40
62809;DHT22;48848;39.002;-94.584;2023-03-15T03:07:17;20.90;36.60
62809;DHT22;48848;39.002;-94.584;2023-03-15T03:09:43;20.80;36.60
62809;DHT22;48848;39.002;-94.584;2023-03-15T03:12:09;20.80;36.80
62809;DHT22;48848;39.002;-94.584;2023-03-15T03:14:35;20.80;36.70
62809;DHT22;48848;39.002;-94.584;2023-03-15T03:17:01;20.80;36.60
62809;DHT22;48848;39.002;-94.584;2023-03-15T03:19:27;20.70;36.70
62809;DHT22;48848;39.002;-94.584;2023-03-15T03:21:53;20.70;36.60
62809;DHT22;48848;39.002;-94.584;2023-03-15T03:24:19;20.70;36.60
62809;DHT22;48848;39.002;-94.584;2023-03-15T03:26:45;20.60;36.80
62809;DHT22;48848;39.002;-94.584;2023-03-15T03:29:11;20.60;36.80
62809;DHT22;48848;39.002;-94.584;2023-03-15T03:31:41;20.60;36.60
62809;DHT22;48848;39.002;-94.584;2023-03-15T03:34:07;20.60;36.60
62809;DHT22;48848;39.002;-94.584;2023-03-15T03:36:34;20.50;36.70
62809;DHT22;48848;39.002;-94.584;2023-03-15T03:38:59;20.50;36.30
62809;DHT22;48848;39.002;-94.584;2023-03-15T03:41:26;20.50;36.50
62809;DHT22;48848;39.002;-94.584;2023-03-15T03:43:52;20.50;36.20
62809;DHT22;48848;39.002;-94.584;2023-03-15T03:46:17;20.50;36.20
62809;DHT22;48848;39.002;-94.584;2023-03-15T03:48:43;20.40;36.40
62809;DHT22;48848;39.002;-94.584;2023-03-15T03:51:09;20.40;36.60
62809;DHT22;48848;39.002;-94.584;2023-03-15T03:53:35;20.40;36.60
62809;DHT22;48848;39.002;-94.584;2023-03-15T03:56:04;20.30;36.40
62809;DHT22;48848;39.002;-94.584;2023-03-15T03:58:31;20.30;36.30
62809;DHT22;48848;39.002;-94.584;2023-03-15T04:00:56;20.20;36.50
62809;DHT22;48848;39.002;-94.584;2023-03-15T04:03:22;20.20;36.60
62809;DHT22;48848;39.002;-94.584;2023-03-15T04:05:57;20.20;36.70
62809;DHT22;48848;39.002;-94.584;2023-03-15T04:08:24;20.20;36.80
62809;DHT22;48848;39.002;-94.584;2023-03-15T04:10:51;20.10;36.80
62809;DHT22;48848;39.002;-94.584;2023-03-15T04:13:18;20.10;36.90
62809;DHT22;48848;39.002;-94.584;2023-03-15T04:15:44;20.10;36.80
62809;DHT22;48848;39.002;-94.584;2023-03-15T04:18:10;20.10;36.60
62809;DHT22;48848;39.002;-94.584;2023-03-15T04:20:36;20.10;36.70
62809;DHT22;48848;39.002;-94.584;2023-03-15T04:23:01;20.00;36.50
62809;DHT22;48848;39.002;-94.584;2023-03-15T04:25:27;19.90;36.70
62809;DHT22;48848;39.002;-94.584;2023-03-15T04:27:53;19.90;36.80
62809;DHT22;48848;39.002;-94.584;2023-03-15T04:30:27;19.90;36.80
62809;DHT22;48848;39.002;-94.584;2023-03-15T04:32:56;19.90;36.60
62809;DHT22;48848;39.002;-94.584;2023-03-15T04:35:28;19.80;36.70
62809;DHT22;48848;39.002;-94.584;2023-03-15T04:37:55;19.80;36.80
62809;DHT22;48848;39.002;-94.584;2023-03-15T04:40:21;19.80;36.90
62809;DHT22;48848;39.002;-94.584;2023-03-15T04:42:51;19.80;36.90
62809;DHT22;48848;39.002;-94.584;2023-03-15T04:45:20;19.70;36.70
62809;DHT22;48848;39.002;-94.584;2023-03-15T04:47:46;19.70;36.60
62809;DHT22;48848;39.002;-94.584;2023-03-15T04:50:13;19.70;36.60
62809;DHT22;48848;39.002;-94.584;2023-03-15T04:52:39;19.70;36.60
62809;DHT22;48848;39.002;-94.584;2023-03-15T04:55:05;19.70;36.80
62809;DHT22;48848;39.002;-94.584;2023-03-15T04:57:31;19.60;36.80
62809;DHT22;48848;39.002;-94.584;2023-03-15T04:59:57;19.60;36.60
62809;DHT22;48848;39.002;-94.584;2023-03-15T05:02:23;19.60;36.70
62809;DHT22;48848;39.002;-94.584;2023-03-15T05:04:49;19.50;36.90
62809;DHT22;48848;39.002;-94.584;2023-03-15T05:07:14;19.50;36.90
62809;DHT22;48848;39.002;-94.584;2023-03-15T05:09:40;19.50;36.90
62809;DHT22;48848;39.002;-94.584;2023-03-15T05:12:06;19.40;36.90
62809;DHT22;48848;39.002;-94.584;2023-03-15T05:14:32;19.40;36.90
62809;DHT22;48848;39.002;-94.584;2023-03-15T05:16:58;19.40;36.80
62809;DHT22;48848;39.002;-94.584;2023-03-15T05:19:24;19.40;36.90
62809;DHT22;48848;39.002;-94.584;2023-03-15T05:21:50;19.30;36.70
62809;DHT22;48848;39.002;-94.584;2023-03-15T05:24:16;19.30;36.80
62809;DHT22;48848;39.002;-94.584;2023-03-15T05:26:42;19.30;37.00
62809;DHT22;48848;39.002;-94.584;2023-03-15T05:29:14;19.20;37.10
62809;DHT22;48848;39.002;-94.584;2023-03-15T05:31:40;19.20;37.20
62809;DHT22;48848;39.002;-94.584;2023-03-15T05:34:06;19.20;37.10
62809;DHT22;48848;39.002;-94.584;2023-03-15T05:36:32;19.20;37.20
62809;DHT22;48848;39.002;-94.584;2023-03-15T05:38:59;19.20;37.30
62809;DHT22;48848;39.002;-94.584;2023-03-15T05:41:29;19.10;37.20
62809;DHT22;48848;39.002;-94.584;2023-03-15T05:43:55;19.10;37.40
62809;DHT22;48848;39.002;-94.584;2023-03-15T05:46:21;19.10;37.10
62809;DHT22;48848;39.002;-94.584;2023-03-15T05:48:47;19.10;37.10
62809;DHT22;48848;39.002;-94.584;2023-03-15T05:51:14;19.10;36.90
62809;DHT22;48848;39.002;-94.584;2023-03-15T05:53:40;19.00;37.10
62809;DHT22;48848;39.002;-94.584;2023-03-15T05:56:06;19.00;36.90
62809;DHT22;48848;39.002;-94.584;2023-03-15T05:58:32;19.00;37.00
62809;DHT22;48848;39.002;-94.584;2023-03-15T06:00:58;18.90;37.10
62809;DHT22;48848;39.002;-94.584;2023-03-15T06:03:26;18.90;37.20
62809;DHT22;48848;39.002;-94.584;2023-03-15T06:05:52;18.80;37.10
62809;DHT22;48848;39.002;-94.584;2023-03-15T06:08:18;18.80;37.30
62809;DHT22;48848;39.002;-94.584;2023-03-15T06:10:44;18.80;37.60
62809;DHT22;48848;39.002;-94.584;2023-03-15T06:13:10;18.80;37.40
62809;DHT22;48848;39.002;-94.584;2023-03-15T06:15:36;18.80;37.50
62809;DHT22;48848;39.002;-94.584;2023-03-15T06:18:02;18.80;37.30
62809;DHT22;48848;39.002;-94.584;2023-03-15T06:20:27;18.70;37.20
62809;DHT22;48848;39.002;-94.584;2023-03-15T06:22:53;18.70;37.30
62809;DHT22;48848;39.002;-94.584;2023-03-15T06:25:19;18.70;37.10
62809;DHT22;48848;39.002;-94.584;2023-03-15T06:27:45;18.70;37.30
62809;DHT22;48848;39.002;-94.584;2023-03-15T06:30:11;18.60;37.20
62809;DHT22;48848;39.002;-94.584;2023-03-15T06:32:37;18.60;37.20
62809;DHT22;48848;39.002;-94.584;2023-03-15T06:35:03;18.60;37.20
62809;DHT22;48848;39.002;-94.584;2023-03-15T06:37:29;18.60;37.20
62809;DHT22;48848;39.002;-94.584;2023-03-15T06:39:56;18.50;37.30
62809;DHT22;48848;39.002;-94.584;2023-03-15T06:42:22;18.50;37.30
62809;DHT22;48848;39.002;-94.584;2023-03-15T06:44:47;18.50;37.50
62809;DHT22;48848;39.002;-94.584;2023-03-15T06:47:13;18.50;37.40
62809;DHT22;48848;39.002;-94.584;2023-03-15T06:49:39;18.50;37.40
62809;DHT22;48848;39.002;-94.584;2023-03-15T06:52:05;18.40;37.20
62809;DHT22;48848;39.002;-94.584;2023-03-15T06:54:32;18.50;37.10
62809;DHT22;48848;39.002;-94.584;2023-03-15T06:56:58;18.40;37.30
62809;DHT22;48848;39.002;-94.584;2023-03-15T06:59:24;18.40;37.40
62809;DHT22;48848;39.002;-94.584;2023-03-15T07:01:50;18.40;37.50
62809;DHT22;48848;39.002;-94.584;2023-03-15T07:04:16;18.30;37.60
62809;DHT22;48848;39.002;-94.584;2023-03-15T07:06:42;18.30;37.80
62809;DHT22;48848;39.002;-94.584;2023-03-15T07:09:07;18.30;37.60
62809;DHT22;48848;39.002;-94.584;2023-03-15T07:11:34;18.30;37.70
62809;DHT22;48848;39.002;-94.584;2023-03-15T07:13:59;18.20;37.70
62809;DHT22;48848;39.002;-94.584;2023-03-15T07:16:25;18.20;37.60
62809;DHT22;48848;39.002;-94.584;2023-03-15T07:18:51;18.20;37.70
62809;DHT22;48848;39.002;-94.584;2023-03-15T07:21:19;18.20;37.60
62809;DHT22;48848;39.002;-94.584;2023-03-15T07:23:45;18.10;37.50
62809;DHT22;48848;39.002;-94.584;2023-03-15T07:26:11;18.10;37.50
62809;DHT22;48848;39.002;-94.584;2023-03-15T07:28:37;18.10;37.60
62809;DHT22;48848;39.002;-94.584;2023-03-15T07:31:03;18.10;37.50
62809;DHT22;48848;39.002;-94.584;2023-03-15T07:33:30;18.10;37.70
62809;DHT22;48848;39.002;-94.584;2023-03-15T07:35:56;18.00;37.60
62809;DHT22;48848;39.002;-94.584;2023-03-15T07:38:23;18.00;37.60
62809;DHT22;48848;39.002;-94.584;2023-03-15T07:40:50;18.00;37.60
62809;DHT22;48848;39.002;-94.584;2023-03-15T07:43:16;18.00;37.80
62809;DHT22;48848;39.002;-94.584;2023-03-15T07:45:42;18.00;37.90
62809;DHT22;48848;39.002;-94.584;2023-03-15T07:48:08;17.90;37.60
62809;DHT22;48848;39.002;-94.584;2023-03-15T07:50:34;17.90;37.60
62809;DHT22;48848;39.002;-94.584;2023-03-15T07:53:00;17.90;37.60
62809;DHT22;48848;39.002;-94.584;2023-03-15T07:55:25;17.90;37.50
62809;DHT22;48848;39.002;-94.584;2023-03-15T07:57:52;17.90;37.50
62809;DHT22;48848;39.002;-94.584;2023-03-15T08:00:18;17.80;37.30
62809;DHT22;48848;39.002;-94.584;2023-03-15T08:02:44;17.80;37.50
62809;DHT22;48848;39.002;-94.584;2023-03-15T08:05:09;17.80;37.60
62809;DHT22;48848;39.002;-94.584;2023-03-15T08:07:35;17.80;37.40
62809;DHT22;48848;39.002;-94.584;2023-03-15T08:10:02;17.80;37.50
62809;DHT22;48848;39.002;-94.584;2023-03-15T08:12:29;17.80;37.50
62809;DHT22;48848;39.002;-94.584;2023-03-15T08:14:55;17.70;37.50
62809;DHT22;48848;39.002;-94.584;2023-03-15T08:17:21;17.70;37.60
62809;DHT22;48848;39.002;-94.584;2023-03-15T08:19:47;17.70;37.60
62809;DHT22;48848;39.002;-94.584;2023-03-15T08:22:12;17.60;37.50
62809;DHT22;48848;39.002;-94.584;2023-03-15T08:24:38;17.60;37.40
62809;DHT22;48848;39.002;-94.584;2023-03-15T08:27:04;17.60;37.40
62809;DHT22;48848;39.002;-94.584;2023-03-15T08:29:30;17.60;37.50
62809;DHT22;48848;39.002;-94.584;2023-03-15T08:31:56;17.60;37.50
62809;DHT22;48848;39.002;-94.584;2023-03-15T08:34:23;17.60;37.50
62809;DHT22;48848;39.002;-94.584;2023-03-15T08:36:49;17.50;37.40
62809;DHT22;48848;39.002;-94.584;2023-03-15T08:39:15;17.50;37.40
62809;DHT22;48848;39.002;-94.584;2023-03-15T08:41:41;17.50;37.50
62809;DHT22;48848;39.002;-94.584;2023-03-15T08:44:08;17.50;37.50
62809;DHT22;48848;39.002;-94.584;2023-03-15T08:46:34;17.50;37.60
62809;DHT22;48848;39.002;-94.584;2023-03-15T08:49:00;17.40;37.50
62809;DHT22;48848;39.002;-94.584;2023-03-15T08:51:26;17.40;37.60
62809;DHT22;48848;39.002;-94.584;2023-03-15T08:53:53;17.40;37.60
62809;DHT22;48848;39.002;-94.584;2023-03-15T08:56:19;17.40;37.40
62809;DHT22;48848;39.002;-94.584;2023-03-15T08:58:45;17.40;37.30
62809;DHT22;48848;39.002;-94.584;2023-03-15T09:01:11;17.40;37.60
62809;DHT22;48848;39.002;-94.584;2023-03-15T09:03:37;17.30;37.40
62809;DHT22;48848;39.002;-94.584;2023-03-15T09:06:03;17.90;37.20
62809;DHT22;48848;39.002;-94.584;2023-03-15T09:08:30;18.90;35.80
62809;DHT22;48848;39.002;-94.584;2023-03-15T09:10:57;19.70;34.60
62809;DHT22;48848;39.002;-94.584;2023-03-15T09:13:24;20.20;33.60
62809;DHT22;48848;39.002;-94.584;2023-03-15T09:15:50;19.20;33.30
62809;DHT22;48848;39.002;-94.584;2023-03-15T09:18:16;18.60;34.90
62809;DHT22;48848;39.002;-94.584;2023-03-15T09:20:42;18.30;35.80
62809;DHT22;48848;39.002;-94.584;2023-03-15T09:23:08;18.10;36.50
62809;DHT22;48848;39.002;-94.584;2023-03-15T09:25:34;18.00;36.80
62809;DHT22;48848;39.002;-94.584;2023-03-15T09:28:02;17.90;36.80
62809;DHT22;48848;39.002;-94.584;2023-03-15T09:30:28;17.80;37.30
62809;DHT22;48848;39.002;-94.584;2023-03-15T09:32:54;17.80;37.00
62809;DHT22;48848;39.002;-94.584;2023-03-15T09:35:20;17.70;37.30
62809;DHT22;48848;39.002;-94.584;2023-03-15T09:37:47;17.60;37.30
62809;DHT22;48848;39.002;-94.584;2023-03-15T09:45:28;17.50;37.70
62809;DHT22;48848;39.002;-94.584;2023-03-15T09:48:08;17.50;37.80
62809;DHT22;48848;39.002;-94.584;2023-03-15T09:50:44;17.50;38.10
62809;DHT22;48848;39.002;-94.584;2023-03-15T09:53:13;17.40;37.90
62809;DHT22;48848;39.002;-94.584;2023-03-15T09:55:41;17.40;37.80
62809;DHT22;48848;39.002;-94.584;2023-03-15T09:58:12;17.40;37.90
62809;DHT22;48848;39.002;-94.584;2023-03-15T10:03:05;17.30;38.00
62809;DHT22;48848;39.002;-94.584;2023-03-15T10:05:36;17.30;38.00
62809;DHT22;48848;39.002;-94.584;2023-03-15T10:08:07;17.30;37.70
62809;DHT22;48848;39.002;-94.584;2023-03-15T10:10:35;18.40;36.90
62809;DHT22;48848;39.002;-94.584;2023-03-15T10:15:57;20.00;34.10
62809;DHT22;48848;39.002;-94.584;2023-03-15T10:18:32;19.40;33.50
62809;DHT22;48848;39.002;-94.584;2023-03-15T10:21:01;18.60;34.90
62809;DHT22;48848;39.002;-94.584;2023-03-15T10:23:35;18.30;35.90
62809;DHT22;48848;39.002;-94.584;2023-03-15T10:26:03;18.10;36.40
62809;DHT22;48848;39.002;-94.584;2023-03-15T10:28:30;18.00;36.90
62809;DHT22;48848;39.002;-94.584;2023-03-15T10:31:08;17.90;37.10
62809;DHT22;48848;39.002;-94.584;2023-03-15T10:33:36;17.80;37.10
62809;DHT22;48848;39.002;-94.584;2023-03-15T10:36:10;17.70;37.10
62809;DHT22;48848;39.002;-94.584;2023-03-15T10:38:38;17.60;37.30
62809;DHT22;48848;39.002;-94.584;2023-03-15T10:41:04;17.60;37.40
62809;DHT22;48848;39.002;-94.584;2023-03-15T10:43:31;18.20;37.20
62809;DHT22;48848;39.002;-94.584;2023-03-15T10:48:57;20.00;34.20
62809;DHT22;48848;39.002;-94.584;2023-03-15T10:51:36;20.70;33.30
62809;DHT22;48848;39.002;-94.584;2023-03-15T10:54:16;21.20;32.50
62809;DHT22;48848;39.002;-94.584;2023-03-15T10:59:19;22.10;31.20
62809;DHT22;48848;39.002;-94.584;2023-03-15T11:01:47;22.20;31.00
62809;DHT22;48848;39.002;-94.584;2023-03-15T11:04:17;22.60;30.50
62809;DHT22;48848;39.002;-94.584;2023-03-15T11:06:58;22.50;30.20
62809;DHT22;48848;39.002;-94.584;2023-03-15T11:09:25;21.10;30.90
62809;DHT22;48848;39.002;-94.584;2023-03-15T11:14:23;19.60;33.80
62809;DHT22;48848;39.002;-94.584;2023-03-15T11:16:54;19.30;34.70
62809;DHT22;48848;39.002;-94.584;2023-03-15T11:19:21;19.10;35.00
62809;DHT22;48848;39.002;-94.584;2023-03-15T11:21:48;19.90;34.70
62809;DHT22;48848;39.002;-94.584;2023-03-15T11:26:47;21.50;32.00
62809;DHT22;48848;39.002;-94.584;2023-03-15T11:31:46;21.10;30.90
62809;DHT22;48848;39.002;-94.584;2023-03-15T11:36:59;19.80;33.50
62809;DHT22;48848;39.002;-94.584;2023-03-15T11:39:33;19.50;34.00
62809;DHT22;48848;39.002;-94.584;2023-03-15T11:42:02;19.40;34.30
62809;DHT22;48848;39.002;-94.584;2023-03-15T11:44:41;19.20;34.50
62809;DHT22;48848;39.002;-94.584;2023-03-15T11:47:15;19.10;34.70
62809;DHT22;48848;39.002;-94.584;2023-03-15T11:49:54;19.10;34.50
62809;DHT22;48848;39.002;-94.584;2023-03-15T11:52:24;20.00;34.50
62809;DHT22;48848;39.002;-94.584;2023-03-15T11:54:51;21.00;32.70
62809;DHT22;48848;39.002;-94.584;2023-03-15T11:59:56;21.80;30.80
62809;DHT22;48848;39.002;-94.584;2023-03-15T12:04:51;19.90;32.90
62809;DHT22;48848;39.002;-94.584;2023-03-15T12:09:48;19.50;33.80
62809;DHT22;48848;39.002;-94.584;2023-03-15T12:14:45;19.20;34.20
62809;DHT22;48848;39.002;-94.584;2023-03-15T12:19:58;19.10;34.00
62809;DHT22;48848;39.002;-94.584;2023-03-15T12:22:25;19.90;34.20
62809;DHT22;48848;39.002;-94.584;2023-03-15T12:24:55;21.00;32.50
62809;DHT22;48848;39.002;-94.584;2023-03-15T12:27:23;21.60;31.50
62809;DHT22;48848;39.002;-94.584;2023-03-15T12:29:58;21.30;30.60
62809;DHT22;48848;39.002;-94.584;2023-03-15T12:32:24;20.00;32.20
62809;DHT22;48848;39.002;-94.584;2023-03-15T12:42:58;17.50;37.80
62809;DHT22;48848;39.002;-94.584;2023-03-15T12:47:42;17.20;38.60
62809;DHT22;48848;39.002;-94.584;2023-03-15T12:52:54;17.20;38.80
62809;DHT22;48848;39.002;-94.584;2023-03-15T12:55:23;17.80;38.50
62809;DHT22;48848;39.002;-94.584;2023-03-15T12:57:52;18.70;36.80
62809;DHT22;48848;39.002;-94.584;2023-03-15T13:00:20;19.70;35.40
62809;DHT22;48848;39.002;-94.584;2023-03-15T13:02:52;19.60;33.80
62809;DHT22;48848;39.002;-94.584;2023-03-15T13:05:22;18.60;35.50
62809;DHT22;48848;39.002;-94.584;2023-03-15T13:10:25;17.70;37.90
62809;DHT22;48848;39.002;-94.584;2023-03-15T13:13:13;17.40;38.80
62809;DHT22;48848;39.002;-94.584;2023-03-15T13:15:44;17.30;39.10
62809;DHT22;48848;39.002;-94.584;2023-03-15T13:18:19;17.30;39.50
62809;DHT22;48848;39.002;-94.584;2023-03-15T13:20:51;17.20;39.80
62809;DHT22;48848;39.002;-94.584;2023-03-15T13:23:21;17.50;39.30
62809;DHT22;48848;39.002;-94.584;2023-03-15T13:28:22;19.90;36.10
62809;DHT22;48848;39.002;-94.584;2023-03-15T13:30:52;20.30;34.70
62809;DHT22;48848;39.002;-94.584;2023-03-15T13:33:20;19.10;34.70
62809;DHT22;48848;39.002;-94.584;2023-03-15T13:35:52;18.40;36.50
62809;DHT22;48848;39.002;-94.584;2023-03-15T13:38:30;17.90;37.70
62809;DHT22;48848;39.002;-94.584;2023-03-15T13:40:56;17.70;38.60
62809;DHT22;48848;39.002;-94.584;2023-03-15T13:43:30;17.50;39.10
62809;DHT22;48848;39.002;-94.584;2023-03-15T13:45:56;17.40;39.70
62809;DHT22;48848;39.002;-94.584;2023-03-15T13:48:24;17.30;39.50
62809;DHT22;48848;39.002;-94.584;2023-03-15T13:50:50;17.20;39.90
62809;DHT22;48848;39.002;-94.584;2023-03-15T13:53:24;17.20;39.70
62809;DHT22;48848;39.002;-94.584;2023-03-15T13:55:51;17.80;39.60
62809;DHT22;48848;39.002;-94.584;2023-03-15T13:58:18;19.20;38.00
62809;DHT22;48848;39.002;-94.584;2023-03-15T14:00:44;20.40;35.70
62809;DHT22;48848;39.002;-94.584;2023-03-15T14:03:12;20.40;33.70
62809;DHT22;48848;39.002;-94.584;2023-03-15T14:05:44;19.10;35.60
62809;DHT22;48848;39.002;-94.584;2023-03-15T14:08:21;18.40;37.50
62809;DHT22;48848;39.002;-94.584;2023-03-15T14:11:01;18.00;38.60
62809;DHT22;48848;39.002;-94.584;2023-03-15T14:13:28;17.80;39.00
62809;DHT22;48848;39.002;-94.584;2023-03-15T14:16:03;17.60;39.70
62809;DHT22;48848;39.002;-94.584;2023-03-15T14:18:34;17.50;40.10
62809;DHT22;48848;39.002;-94.584;2023-03-15T14:23:26;17.30;40.40
62809;DHT22;48848;39.002;-94.584;2023-03-15T14:25:53;17.30;40.70
62809;DHT22;48848;39.002;-94.584;2023-03-15T14:28:20;17.20;41.80
62809;DHT22;48848;39.002;-94.584;2023-03-15T14:30:52;17.20;41.20
62809;DHT22;48848;39.002;-94.584;2023-03-15T14:33:26;17.20;41.30
62809;DHT22;48848;39.002;-94.584;2023-03-15T14:35:56;17.10;41.10
62809;DHT22;48848;39.002;-94.584;2023-03-15T14:38:23;17.10;41.30
62809;DHT22;48848;39.002;-94.584;2023-03-15T14:40:49;17.10;41.40
62809;DHT22;48848;39.002;-94.584;2023-03-15T14:43:16;17.10;41.60
62809;DHT22;48848;39.002;-94.584;2023-03-15T14:45:43;17.10;41.60
62809;DHT22;48848;39.002;-94.584;2023-03-15T14:48:13;17.10;41.20
62809;DHT22;48848;39.002;-94.584;2023-03-15T14:50:41;17.30;41.50
62809;DHT22;48848;39.002;-94.584;2023-03-15T14:53:10;17.30;41.20
62809;DHT22;48848;39.002;-94.584;2023-03-15T14:55:37;17.20;41.50
62809;DHT22;48848;39.002;-94.584;2023-03-15T14:58:05;17.30;41.10
62809;DHT22;48848;39.002;-94.584;2023-03-15T15:00:34;17.20;41.30
62809;DHT22;48848;39.002;-94.584;2023-03-15T15:03:00;17.20;41.00
62809;DHT22;48848;39.002;-94.584;2023-03-15T15:05:30;17.20;41.00
62809;DHT22;48848;39.002;-94.584;2023-03-15T15:07:58;17.30;41.00
62809;DHT22;48848;39.002;-94.584;2023-03-15T15:10:27;17.40;41.00
62809;DHT22;48848;39.002;-94.584;2023-03-15T15:12:52;17.40;40.70
62809;DHT22;48848;39.002;-94.584;2023-03-15T15:15:19;17.60;40.60
62809;DHT22;48848;39.002;-94.584;2023-03-15T15:17:46;17.60;40.50
62809;DHT22;48848;39.002;-94.584;2023-03-15T15:20:12;17.60;40.70
62809;DHT22;48848;39.002;-94.584;2023-03-15T15:22:43;17.60;40.20
62809;DHT22;48848;39.002;-94.584;2023-03-15T15:25:12;17.70;40.00
62809;DHT22;48848;39.002;-94.584;2023-03-15T15:27:39;17.80;40.20
62809;DHT22;48848;39.002;-94.584;2023-03-15T15:30:05;17.80;39.90
62809;DHT22;48848;39.002;-94.584;2023-03-15T15:32:31;17.80;39.80
62809;DHT22;48848;39.002;-94.584;2023-03-15T15:35:00;17.90;39.90
62809;DHT22;48848;39.002;-94.584;2023-03-15T15:37:26;17.90;39.40
62809;DHT22;48848;39.002;-94.584;2023-03-15T15:39:52;17.90;39.50
62809;DHT22;48848;39.002;-94.584;2023-03-15T15:42:18;17.90;39.40
62809;DHT22;48848;39.002;-94.584;2023-03-15T15:44:44;17.80;39.30
62809;DHT22;48848;39.002;-94.584;2023-03-15T15:47:10;17.90;39.30
62809;DHT22;48848;39.002;-94.584;2023-03-15T15:49:36;17.90;39.50
62809;DHT22;48848;39.002;-94.584;2023-03-15T15:52:02;17.90;39.00
62809;DHT22;48848;39.002;-94.584;2023-03-15T15:54:28;17.90;39.20
62809;DHT22;48848;39.002;-94.584;2023-03-15T15:57:00;17.90;39.00
62809;DHT22;48848;39.002;-94.584;2023-03-15T15:59:26;17.90;39.30
62809;DHT22;48848;39.002;-94.584;2023-03-15T16:01:53;17.90;39.30
62809;DHT22;48848;39.002;-94.584;2023-03-15T16:04:19;17.90;39.70
62809;DHT22;48848;39.002;-94.584;2023-03-15T16:06:49;17.80;39.60
62809;DHT22;48848;39.002;-94.584;2023-03-15T16:09:16;17.80;40.00
62809;DHT22;48848;39.002;-94.584;2023-03-15T16:11:43;17.80;39.90